sensor_id;sensor_type;location;lat;lon;timestamp;temperature;humidity
28075;DHT22;15385;51.088;6.572;2023-03-26T00:00:37;10.60;99.90
28075;DHT22;15385;51.088;6.572;2023-03-26T00:03:11;10.70;99.90
28075;DHT22;15385;51.088;6.572;2023-03-26T00:05:42;10.70;99.90
28075;DHT22;15385;51.088;6.572;2023-03-26T00:08:14;10.80;99.90
28075;DHT22;15385;51.088;6.572;2023-03-26T00:10:45;10.80;99.90
28075;DHT22;15385;51.088;6.572;2023-03-26T00:13:16;10.80;99.90
28075;DHT22;15385;51.088;6.572;2023-03-26T00:15:47;10.80;99.90
28075;DHT22;15385;51.088;6.572;2023-03-26T00:18:18;10.80;99.90
28075;DHT22;15385;51.088;6.572;2023-03-26T00:20:54;10.80;99.90
28075;DHT22;15385;51.088;6.572;2023-03-26T00:23:25;10.80;99.90
28075;DHT22;15385;51.088;6.572;2023-03-26T00:25:56;10.90;99.90
28075;DHT22;15385;51.088;6.572;2023-03-26T00:28:27;10.90;99.90
28075;DHT22;15385;51.088;6.572;2023-03-26T00:31:01;10.90;99.90
28075;DHT22;15385;51.088;6.572;2023-03-26T00:33:32;10.80;99.90
28075;DHT22;15385;51.088;6.572;2023-03-26T00:36:10;10.80;99.90
28075;DHT22;15385;51.088;6.572;2023-03-26T00:38:44;10.80;99.90
28075;DHT22;15385;51.088;6.572;2023-03-26T00:41:18;10.70;99.90
28075;DHT22;15385;51.088;6.572;2023-03-26T00:43:57;10.80;99.90
28075;DHT22;15385;51.088;6.572;2023-03-26T00:46:29;10.80;99.90
28075;DHT22;15385;51.088;6.572;2023-03-26T00:49:01;10.80;99.90
28075;DHT22;15385;51.088;6.572;2023-03-26T00:51:33;10.80;99.90
28075;DHT22;15385;51.088;6.572;2023-03-26T00:54:04;10.80;99.90
28075;DHT22;15385;51.088;6.572;2023-03-26T00:56:36;10.70;99.90
28075;DHT22;15385;51.088;6.572;2023-03-26T00:59:08;10.80;99.90
28075;DHT22;15385;51.088;6.572;2023-03-26T01:01:39;10.80;99.90
28075;DHT22;15385;51.088;6.572;2023-03-26T01:04:38;10.80;99.90
28075;DHT22;15385;51.088;6.572;2023-03-26T01:07:15;10.80;99.90
28075;DHT22;15385;51.088;6.572;2023-03-26T01:09:51;10.80;99.90
28075;DHT22;15385;51.088;6.572;2023-03-26T01:12:24;10.70;99.90
28075;DHT22;15385;51.088;6.572;2023-03-26T01:14:57;10.70;99.90
28075;DHT22;15385;51.088;6.572;2023-03-26T01:17:30;10.70;99.90
28075;DHT22;15385;51.088;6.572;2023-03-26T01:20:16;10.70;99.90
28075;DHT22;15385;51.088;6.572;2023-03-26T01:22:53;10.70;99.90
28075;DHT22;15385;51.088;6.572;2023-03-26T01:25:26;10.70;99.90
28075;DHT22;15385;51.088;6.572;2023-03-26T01:28:04;10.70;99.90
28075;DHT22;15385;51.088;6.572;2023-03-26T01:30:45;10.70;99.90
28075;DHT22;15385;51.088;6.572;2023-03-26T01:33:41;10.70;99.90
28075;DHT22;15385;51.088;6.572;2023-03-26T01:36:47;10.70;99.90
28075;DHT22;15385;51.088;6.572;2023-03-26T01:42:25;10.60;99.90
28075;DHT22;15385;51.088;6.572;2023-03-26T01:45:06;10.60;99.90
28075;DHT22;15385;51.088;6.572;2023-03-26T01:47:39;10.50;99.90
28075;DHT22;15385;51.088;6.572;2023-03-26T01:50:11;10.50;99.90
28075;DHT22;15385;51.088;6.572;2023-03-26T01:52:42;10.50;99.90
28075;DHT22;15385;51.088;6.572;2023-03-26T01:55:12;10.40;99.90
28075;DHT22;15385;51.088;6.572;2023-03-26T01:58:02;10.30;99.90
28075;DHT22;15385;51.088;6.572;2023-03-26T02:00:46;10.30;99.90
28075;DHT22;15385;51.088;6.572;2023-03-26T02:03:29;10.30;99.90
28075;DHT22;15385;51.088;6.572;2023-03-26T02:06:06;10.30;99.90
28075;DHT22;15385;51.088;6.572;2023-03-26T02:09:00;10.40;99.90
28075;DHT22;15385;51.088;6.572;2023-03-26T02:11:32;10.40;99.90
28075;DHT22;15385;51.088;6.572;2023-03-26T02:14:04;10.40;99.90
28075;DHT22;15385;51.088;6.572;2023-03-26T02:16:36;10.40;99.90
28075;DHT22;15385;51.088;6.572;2023-03-26T02:19:06;10.40;99.90
28075;DHT22;15385;51.088;6.572;2023-03-26T02:21:44;10.50;99.90
28075;DHT22;15385;51.088;6.572;2023-03-26T02:24:18;10.50;99.90
28075;DHT22;15385;51.088;6.572;2023-03-26T02:26:49;10.40;99.90
28075;DHT22;15385;51.088;6.572;2023-03-26T02:29:20;10.40;99.90
28075;DHT22;15385;51.088;6.572;2023-03-26T02:31:50;10.50;99.90
28075;DHT22;15385;51.088;6.572;2023-03-26T02:34:21;10.60;99.90
28075;DHT22;15385;51.088;6.572;2023-03-26T02:36:51;10.70;99.90
28075;DHT22;15385;51.088;6.572;2023-03-26T02:39:23;10.80;99.90
28075;DHT22;15385;51.088;6.572;2023-03-26T02:41:53;10.80;99.90
28075;DHT22;15385;51.088;6.572;2023-03-26T02:44:24;10.80;99.90
28075;DHT22;15385;51.088;6.572;2023-03-26T02:46:55;10.80;99.90
28075;DHT22;15385;51.088;6.572;2023-03-26T02:49:25;10.80;99.90
28075;DHT22;15385;51.088;6.572;2023-03-26T02:51:56;10.70;99.90
28075;DHT22;15385;51.088;6.572;2023-03-26T02:54:27;10.70;99.90
28075;DHT22;15385;51.088;6.572;2023-03-26T02:56:58;10.60;99.90
28075;DHT22;15385;51.088;6.572;2023-03-26T02:59:28;10.60;99.90
28075;DHT22;15385;51.088;6.572;2023-03-26T03:01:59;10.60;99.90
28075;DHT22;15385;51.088;6.572;2023-03-26T03:04:30;10.70;99.90
28075;DHT22;15385;51.088;6.572;2023-03-26T03:07:00;10.70;99.90
28075;DHT22;15385;51.088;6.572;2023-03-26T03:09:31;10.60;99.90
28075;DHT22;15385;51.088;6.572;2023-03-26T03:12:01;10.60;99.90
28075;DHT22;15385;51.088;6.572;2023-03-26T03:14:32;10.60;99.90
28075;DHT22;15385;51.088;6.572;2023-03-26T03:17:03;10.60;99.90
28075;DHT22;15385;51.088;6.572;2023-03-26T03:19:33;10.60;99.90
28075;DHT22;15385;51.088;6.572;2023-03-26T03:22:04;10.50;99.90
28075;DHT22;15385;51.088;6.572;2023-03-26T03:24:35;10.50;99.90
28075;DHT22;15385;51.088;6.572;2023-03-26T03:27:05;10.50;99.90
28075;DHT22;15385;51.088;6.572;2023-03-26T03:29:36;10.50;99.90
28075;DHT22;15385;51.088;6.572;2023-03-26T03:32:07;10.60;99.90
28075;DHT22;15385;51.088;6.572;2023-03-26T03:34:37;10.60;99.90
28075;DHT22;15385;51.088;6.572;2023-03-26T03:37:08;10.60;99.90
28075;DHT22;15385;51.088;6.572;2023-03-26T03:39:38;10.60;99.90
28075;DHT22;15385;51.088;6.572;2023-03-26T03:42:09;10.60;99.90
28075;DHT22;15385;51.088;6.572;2023-03-26T03:44:40;10.60;99.90
28075;DHT22;15385;51.088;6.572;2023-03-26T03:47:11;10.60;99.90
28075;DHT22;15385;51.088;6.572;2023-03-26T03:49:43;10.60;99.90
28075;DHT22;15385;51.088;6.572;2023-03-26T03:52:13;10.60;99.90
28075;DHT22;15385;51.088;6.572;2023-03-26T03:54:44;10.70;99.90
28075;DHT22;15385;51.088;6.572;2023-03-26T03:57:14;10.70;99.90
28075;DHT22;15385;51.088;6.572;2023-03-26T03:59:48;10.70;99.90
28075;DHT22;15385;51.088;6.572;2023-03-26T04:02:18;10.80;99.90
28075;DHT22;15385;51.088;6.572;2023-03-26T04:04:56;10.90;99.90
28075;DHT22;15385;51.088;6.572;2023-03-26T04:07:30;10.90;99.90
28075;DHT22;15385;51.088;6.572;2023-03-26T04:10:01;10.90;99.90
28075;DHT22;15385;51.088;6.572;2023-03-26T04:12:33;11.00;99.90
28075;DHT22;15385;51.088;6.572;2023-03-26T04:15:04;11.00;99.90
28075;DHT22;15385;51.088;6.572;2023-03-26T04:17:34;11.00;99.90
28075;DHT22;15385;51.088;6.572;2023-03-26T04:20:11;11.00;99.90
28075;DHT22;15385;51.088;6.572;2023-03-26T04:22:45;11.00;99.90
28075;DHT22;15385;51.088;6.572;2023-03-26T04:25:16;11.00;99.90
28075;DHT22;15385;51.088;6.572;2023-03-26T04:27:47;11.00;99.90
28075;DHT22;15385;51.088;6.572;2023-03-26T04:30:18;11.00;99.90
28075;DHT22;15385;51.088;6.572;2023-03-26T04:32:49;11.00;99.90
28075;DHT22;15385;51.088;6.572;2023-03-26T04:35:21;11.00;99.90
28075;DHT22;15385;51.088;6.572;2023-03-26T04:37:53;10.90;99.90
28075;DHT22;15385;51.088;6.572;2023-03-26T04:40:23;10.90;99.90
28075;DHT22;15385;51.088;6.572;2023-03-26T04:42:54;10.90;99.90
28075;DHT22;15385;51.088;6.572;2023-03-26T04:45:28;10.90;99.90
28075;DHT22;15385;51.088;6.572;2023-03-26T04:47:59;10.80;99.90
28075;DHT22;15385;51.088;6.572;2023-03-26T04:50:30;10.70;99.90
28075;DHT22;15385;51.088;6.572;2023-03-26T04:53:00;10.70;99.90
28075;DHT22;15385;51.088;6.572;2023-03-26T04:55:42;10.70;99.90
28075;DHT22;15385;51.088;6.572;2023-03-26T04:58:14;10.70;99.90
28075;DHT22;15385;51.088;6.572;2023-03-26T05:00:45;10.70;99.90
28075;DHT22;15385;51.088;6.572;2023-03-26T05:03:16;10.70;99.90
28075;DHT22;15385;51.088;6.572;2023-03-26T05:05:50;10.70;99.90
28075;DHT22;15385;51.088;6.572;2023-03-26T05:08:20;10.70;99.90
28075;DHT22;15385;51.088;6.572;2023-03-26T05:10:51;10.60;99.90
28075;DHT22;15385;51.088;6.572;2023-03-26T05:13:23;10.70;99.90
28075;DHT22;15385;51.088;6.572;2023-03-26T05:15:53;10.70;99.90
28075;DHT22;15385;51.088;6.572;2023-03-26T05:18:24;10.70;99.90
28075;DHT22;15385;51.088;6.572;2023-03-26T05:20:55;10.70;99.90
28075;DHT22;15385;51.088;6.572;2023-03-26T05:23:26;10.60;99.90
28075;DHT22;15385;51.088;6.572;2023-03-26T05:25:57;10.50;99.90
28075;DHT22;15385;51.088;6.572;2023-03-26T05:28:27;10.40;99.90
28075;DHT22;15385;51.088;6.572;2023-03-26T05:30:58;10.30;99.90
28075;DHT22;15385;51.088;6.572;2023-03-26T05:33:30;10.10;99.90
28075;DHT22;15385;51.088;6.572;2023-03-26T05:36:06;10.10;99.90
28075;DHT22;15385;51.088;6.572;2023-03-26T05:38:38;10.20;99.90
28075;DHT22;15385;51.088;6.572;2023-03-26T05:41:09;10.20;99.90
28075;DHT22;15385;51.088;6.572;2023-03-26T05:43:40;10.30;99.90
28075;DHT22;15385;51.088;6.572;2023-03-26T05:46:11;10.20;99.90
28075;DHT22;15385;51.088;6.572;2023-03-26T05:48:42;10.30;99.90
28075;DHT22;15385;51.088;6.572;2023-03-26T05:51:13;10.30;99.90
28075;DHT22;15385;51.088;6.572;2023-03-26T05:53:45;10.20;99.90
28075;DHT22;15385;51.088;6.572;2023-03-26T05:56:15;10.20;99.90
28075;DHT22;15385;51.088;6.572;2023-03-26T05:58:46;10.30;99.90
28075;DHT22;15385;51.088;6.572;2023-03-26T06:01:16;10.40;99.90
28075;DHT22;15385;51.088;6.572;2023-03-26T06:03:48;10.40;99.90
28075;DHT22;15385;51.088;6.572;2023-03-26T06:06:19;10.50;99.90
28075;DHT22;15385;51.088;6.572;2023-03-26T06:08:51;10.60;99.90
28075;DHT22;15385;51.088;6.572;2023-03-26T06:11:21;10.60;99.90
28075;DHT22;15385;51.088;6.572;2023-03-26T06:13:52;10.60;99.90
28075;DHT22;15385;51.088;6.572;2023-03-26T06:16:23;10.70;99.90
28075;DHT22;15385;51.088;6.572;2023-03-26T06:18:54;10.70;99.90
28075;DHT22;15385;51.088;6.572;2023-03-26T06:21:26;10.60;99.90
28075;DHT22;15385;51.088;6.572;2023-03-26T06:23:57;10.70;99.90
28075;DHT22;15385;51.088;6.572;2023-03-26T06:26:27;10.70;99.90
28075;DHT22;15385;51.088;6.572;2023-03-26T06:28:58;10.70;99.90
28075;DHT22;15385;51.088;6.572;2023-03-26T06:31:28;10.80;99.90
28075;DHT22;15385;51.088;6.572;2023-03-26T06:33:59;10.80;99.90
28075;DHT22;15385;51.088;6.572;2023-03-26T06:36:30;10.80;99.90
28075;DHT22;15385;51.088;6.572;2023-03-26T06:39:00;10.80;99.90
28075;DHT22;15385;51.088;6.572;2023-03-26T06:41:33;10.80;99.90
28075;DHT22;15385;51.088;6.572;2023-03-26T06:44:04;10.80;99.90
28075;DHT22;15385;51.088;6.572;2023-03-26T06:46:34;10.80;99.90
28075;DHT22;15385;51.088;6.572;2023-03-26T06:49:05;10.80;99.90
28075;DHT22;15385;51.088;6.572;2023-03-26T06:51:35;10.70;99.90
28075;DHT22;15385;51.088;6.572;2023-03-26T06:54:08;10.60;99.90
28075;DHT22;15385;51.088;6.572;2023-03-26T06:56:38;10.40;99.90
28075;DHT22;15385;51.088;6.572;2023-03-26T06:59:09;10.30;99.90
28075;DHT22;15385;51.088;6.572;2023-03-26T07:01:40;10.40;99.90
28075;DHT22;15385;51.088;6.572;2023-03-26T07:04:10;10.50;99.90
28075;DHT22;15385;51.088;6.572;2023-03-26T07:06:41;10.50;99.90
28075;DHT22;15385;51.088;6.572;2023-03-26T07:09:11;10.50;99.90
28075;DHT22;15385;51.088;6.572;2023-03-26T07:11:42;10.50;99.90
28075;DHT22;15385;51.088;6.572;2023-03-26T07:14:13;10.50;99.90
28075;DHT22;15385;51.088;6.572;2023-03-26T07:16:43;10.50;99.90
28075;DHT22;15385;51.088;6.572;2023-03-26T07:19:14;10.50;99.90
28075;DHT22;15385;51.088;6.572;2023-03-26T07:21:44;10.50;99.90
28075;DHT22;15385;51.088;6.572;2023-03-26T07:24:16;10.50;99.90
28075;DHT22;15385;51.088;6.572;2023-03-26T07:27:05;10.50;99.90
28075;DHT22;15385;51.088;6.572;2023-03-26T07:29:51;10.50;99.90
28075;DHT22;15385;51.088;6.572;2023-03-26T07:46:31;10.40;99.90
28075;DHT22;15385;51.088;6.572;2023-03-26T07:49:03;10.40;99.90
28075;DHT22;15385;51.088;6.572;2023-03-26T07:51:35;10.30;99.90
28075;DHT22;15385;51.088;6.572;2023-03-26T07:54:09;10.30;99.90
28075;DHT22;15385;51.088;6.572;2023-03-26T07:56:51;10.30;99.90
28075;DHT22;15385;51.088;6.572;2023-03-26T07:59:35;10.20;99.90
28075;DHT22;15385;51.088;6.572;2023-03-26T08:05:25;10.20;99.90
28075;DHT22;15385;51.088;6.572;2023-03-26T08:08:17;10.20;99.90
28075;DHT22;15385;51.088;6.572;2023-03-26T08:11:19;10.10;99.90
28075;DHT22;15385;51.088;6.572;2023-03-26T08:16:55;10.10;99.90
28075;DHT22;15385;51.088;6.572;2023-03-26T08:19:50;10.10;99.90
28075;DHT22;15385;51.088;6.572;2023-03-26T08:22:41;10.10;99.90
28075;DHT22;15385;51.088;6.572;2023-03-26T08:25:34;10.10;99.90
28075;DHT22;15385;51.088;6.572;2023-03-26T08:30:52;10.10;99.90
28075;DHT22;15385;51.088;6.572;2023-03-26T08:33:25;10.10;99.90
28075;DHT22;15385;51.088;6.572;2023-03-26T08:35:57;10.00;99.90
28075;DHT22;15385;51.088;6.572;2023-03-26T08:38:27;10.00;99.90
28075;DHT22;15385;51.088;6.572;2023-03-26T08:56:00;10.00;99.90
28075;DHT22;15385;51.088;6.572;2023-03-26T09:36:20;10.00;99.90
28075;DHT22;15385;51.088;6.572;2023-03-26T09:41:57;9.80;99.90
28075;DHT22;15385;51.088;6.572;2023-03-26T09:44:59;9.80;99.90
28075;DHT22;15385;51.088;6.572;2023-03-26T09:50:47;9.70;99.90
28075;DHT22;15385;51.088;6.572;2023-03-26T09:53:44;9.60;99.90
28075;DHT22;15385;51.088;6.572;2023-03-26T10:04:58;9.80;99.90
28075;DHT22;15385;51.088;6.572;2023-03-26T10:15:59;10.00;99.90
28075;DHT22;15385;51.088;6.572;2023-03-26T10:24:18;10.00;99.90
28075;DHT22;15385;51.088;6.572;2023-03-26T10:27:23;10.00;99.90
28075;DHT22;15385;51.088;6.572;2023-03-26T10:52:43;10.40;99.90
28075;DHT22;15385;51.088;6.572;2023-03-26T10:55:20;10.40;99.90
28075;DHT22;15385;51.088;6.572;2023-03-26T10:58:38;10.30;99.90
28075;DHT22;15385;51.088;6.572;2023-03-26T11:00:53;10.40;99.90
28075;DHT22;15385;51.088;6.572;2023-03-26T11:23:10;10.30;99.90
28075;DHT22;15385;51.088;6.572;2023-03-26T11:25:50;10.30;99.90
28075;DHT22;15385;51.088;6.572;2023-03-26T11:31:17;10.40;99.90
28075;DHT22;15385;51.088;6.572;2023-03-26T11:33:52;10.40;99.90
28075;DHT22;15385;51.088;6.572;2023-03-26T11:36:28;10.20;99.90
28075;DHT22;15385;51.088;6.572;2023-03-26T11:39:03;10.20;99.90
28075;DHT22;15385;51.088;6.572;2023-03-26T11:41:38;10.30;99.90
28075;DHT22;15385;51.088;6.572;2023-03-26T11:44:27;10.40;99.90
28075;DHT22;15385;51.088;6.572;2023-03-26T11:47:04;10.50;99.90
28075;DHT22;15385;51.088;6.572;2023-03-26T11:49:39;10.50;99.90
28075;DHT22;15385;51.088;6.572;2023-03-26T11:52:11;10.60;99.90
28075;DHT22;15385;51.088;6.572;2023-03-26T11:54:41;10.40;99.90
28075;DHT22;15385;51.088;6.572;2023-03-26T11:57:25;10.40;99.90
28075;DHT22;15385;51.088;6.572;2023-03-26T12:00:03;10.50;99.90
28075;DHT22;15385;51.088;6.572;2023-03-26T12:02:41;10.50;99.90
28075;DHT22;15385;51.088;6.572;2023-03-26T12:05:26;10.50;99.90
28075;DHT22;15385;51.088;6.572;2023-03-26T12:08:02;10.60;99.90
28075;DHT22;15385;51.088;6.572;2023-03-26T12:10:36;10.50;99.90
28075;DHT22;15385;51.088;6.572;2023-03-26T12:16:00;10.60;99.90
28075;DHT22;15385;51.088;6.572;2023-03-26T12:18:33;10.60;99.90
28075;DHT22;15385;51.088;6.572;2023-03-26T12:21:13;10.60;99.90
28075;DHT22;15385;51.088;6.572;2023-03-26T12:26:41;10.70;99.90
28075;DHT22;15385;51.088;6.572;2023-03-26T12:29:16;10.70;99.90
28075;DHT22;15385;51.088;6.572;2023-03-26T12:31:54;10.80;99.90
28075;DHT22;15385;51.088;6.572;2023-03-26T12:34:33;10.80;99.90
28075;DHT22;15385;51.088;6.572;2023-03-26T12:37:06;10.90;99.90
28075;DHT22;15385;51.088;6.572;2023-03-26T12:39:39;11.00;99.90
28075;DHT22;15385;51.088;6.572;2023-03-26T12:42:26;11.00;99.90
28075;DHT22;15385;51.088;6.572;2023-03-26T12:44:58;11.00;99.90
28075;DHT22;15385;51.088;6.572;2023-03-26T12:47:30;11.00;99.90
28075;DHT22;15385;51.088;6.572;2023-03-26T12:50:01;11.00;99.90
28075;DHT22;15385;51.088;6.572;2023-03-26T12:53:14;11.00;99.90
28075;DHT22;15385;51.088;6.572;2023-03-26T12:55:54;11.00;99.90
28075;DHT22;15385;51.088;6.572;2023-03-26T13:01:57;10.80;99.90
28075;DHT22;15385;51.088;6.572;2023-03-26T13:10:48;10.90;99.90
28075;DHT22;15385;51.088;6.572;2023-03-26T13:13:57;11.00;99.90
28075;DHT22;15385;51.088;6.572;2023-03-26T13:19:15;11.10;99.90
28075;DHT22;15385;51.088;6.572;2023-03-26T13:27:40;11.10;99.90
28075;DHT22;15385;51.088;6.572;2023-03-26T13:33:37;11.00;99.90
28075;DHT22;15385;51.088;6.572;2023-03-26T13:39:08;10.80;99.90
28075;DHT22;15385;51.088;6.572;2023-03-26T13:44:35;10.80;99.90
28075;DHT22;15385;51.088;6.572;2023-03-26T13:47:29;10.80;99.90
28075;DHT22;15385;51.088;6.572;2023-03-26T13:50:17;10.80;99.90
28075;DHT22;15385;51.088;6.572;2023-03-26T13:52:54;10.90;99.90
28075;DHT22;15385;51.088;6.572;2023-03-26T13:55:31;11.00;99.90
28075;DHT22;15385;51.088;6.572;2023-03-26T13:58:18;10.90;99.90
28075;DHT22;15385;51.088;6.572;2023-03-26T14:01:06;10.90;99.90
28075;DHT22;15385;51.088;6.572;2023-03-26T14:09:29;11.00;99.90
28075;DHT22;15385;51.088;6.572;2023-03-26T14:15:13;11.20;99.90
28075;DHT22;15385;51.088;6.572;2023-03-26T14:21:43;11.30;99.90
28075;DHT22;15385;51.088;6.572;2023-03-26T14:24:00;11.20;99.90
28075;DHT22;15385;51.088;6.572;2023-03-26T14:32:44;11.30;99.90
28075;DHT22;15385;51.088;6.572;2023-03-26T14:41:16;11.40;99.90
28075;DHT22;15385;51.088;6.572;2023-03-26T14:52:49;11.40;99.90
28075;DHT22;15385;51.088;6.572;2023-03-26T15:01:28;11.40;99.90
28075;DHT22;15385;51.088;6.572;2023-03-26T15:21:14;11.20;99.90
28075;DHT22;15385;51.088;6.572;2023-03-26T15:27:44;11.20;99.90
28075;DHT22;15385;51.088;6.572;2023-03-26T15:44:52;10.90;99.90
28075;DHT22;15385;51.088;6.572;2023-03-26T15:50:36;10.80;99.90
28075;DHT22;15385;51.088;6.572;2023-03-26T16:08:40;10.60;99.90
28075;DHT22;15385;51.088;6.572;2023-03-26T16:17:11;10.50;99.90
28075;DHT22;15385;51.088;6.572;2023-03-26T16:22:34;10.50;99.90
28075;DHT22;15385;51.088;6.572;2023-03-26T16:27:46;10.50;99.90
28075;DHT22;15385;51.088;6.572;2023-03-26T16:30:36;10.40;99.90
28075;DHT22;15385;51.088;6.572;2023-03-26T16:33:15;10.40;99.90
28075;DHT22;15385;51.088;6.572;2023-03-26T16:36:08;10.40;99.90
28075;DHT22;15385;51.088;6.572;2023-03-26T16:38:54;10.30;99.90
28075;DHT22;15385;51.088;6.572;2023-03-26T16:55:31;10.20;99.90
28075;DHT22;15385;51.088;6.572;2023-03-26T17:04:03;10.40;99.90
28075;DHT22;15385;51.088;6.572;2023-03-26T17:23:54;13.20;99.90
28075;DHT22;15385;51.088;6.572;2023-03-26T17:32:54;12.00;99.90
28075;DHT22;15385;51.088;6.572;2023-03-26T17:35:44;11.50;99.90
28075;DHT22;15385;51.088;6.572;2023-03-26T17:40:56;10.70;99.90
28075;DHT22;15385;51.088;6.572;2023-03-26T17:43:50;10.50;99.90
28075;DHT22;15385;51.088;6.572;2023-03-26T17:48:58;10.20;99.90
28075;DHT22;15385;51.088;6.572;2023-03-26T17:51:48;10.20;99.90
28075;DHT22;15385;51.088;6.572;2023-03-26T17:54:37;10.20;99.90
28075;DHT22;15385;51.088;6.572;2023-03-26T17:57:20;10.10;99.90
28075;DHT22;15385;51.088;6.572;2023-03-26T17:59:56;10.20;99.90
28075;DHT22;15385;51.088;6.572;2023-03-26T18:02:39;10.10;99.90
28075;DHT22;15385;51.088;6.572;2023-03-26T18:05:13;10.10;99.90
28075;DHT22;15385;51.088;6.572;2023-03-26T18:16:11;10.10;99.90
28075;DHT22;15385;51.088;6.572;2023-03-26T18:18:58;10.00;99.90
28075;DHT22;15385;51.088;6.572;2023-03-26T18:21:37;9.90;99.90
28075;DHT22;15385;51.088;6.572;2023-03-26T18:24:29;9.80;99.90
28075;DHT22;15385;51.088;6.572;2023-03-26T18:27:04;9.80;99.90
28075;DHT22;15385;51.088;6.572;2023-03-26T18:29:36;9.80;99.90
28075;DHT22;15385;51.088;6.572;2023-03-26T18:34:56;9.70;99.90
28075;DHT22;15385;51.088;6.572;2023-03-26T18:37:28;9.70;99.90
28075;DHT22;15385;51.088;6.572;2023-03-26T18:42:59;9.70;99.90
28075;DHT22;15385;51.088;6.572;2023-03-26T18:45:32;9.60;99.90
28075;DHT22;15385;51.088;6.572;2023-03-26T18:48:16;9.60;99.90
28075;DHT22;15385;51.088;6.572;2023-03-26T18:51:02;9.60;99.90
28075;DHT22;15385;51.088;6.572;2023-03-26T18:53:41;9.60;99.90
28075;DHT22;15385;51.088;6.572;2023-03-26T18:56:25;9.60;99.90
28075;DHT22;15385;51.088;6.572;2023-03-26T18:58:58;9.40;99.90
28075;DHT22;15385;51.088;6.572;2023-03-26T19:01:31;9.30;99.90
28075;DHT22;15385;51.088;6.572;2023-03-26T19:04:05;9.30;99.90
28075;DHT22;15385;51.088;6.572;2023-03-26T19:06:39;9.30;99.90
28075;DHT22;15385;51.088;6.572;2023-03-26T19:09:10;9.30;99.90
28075;DHT22;15385;51.088;6.572;2023-03-26T19:11:42;9.30;99.90
28075;DHT22;15385;51.088;6.572;2023-03-26T19:14:19;9.40;99.90
28075;DHT22;15385;51.088;6.572;2023-03-26T19:16:54;9.20;99.90
28075;DHT22;15385;51.088;6.572;2023-03-26T19:19:32;9.20;99.90
28075;DHT22;15385;51.088;6.572;2023-03-26T19:22:07;9.20;99.90
28075;DHT22;15385;51.088;6.572;2023-03-26T19:24:40;9.20;99.90
28075;DHT22;15385;51.088;6.572;2023-03-26T19:27:11;9.20;99.90
28075;DHT22;15385;51.088;6.572;2023-03-26T19:29:42;9.20;99.90
28075;DHT22;15385;51.088;6.572;2023-03-26T19:32:19;9.20;99.90
28075;DHT22;15385;51.088;6.572;2023-03-26T19:34:50;9.10;99.90
28075;DHT22;15385;51.088;6.572;2023-03-26T19:37:26;9.10;99.90
28075;DHT22;15385;51.088;6.572;2023-03-26T19:42:36;9.00;99.90
28075;DHT22;15385;51.088;6.572;2023-03-26T19:45:14;9.00;99.90
28075;DHT22;15385;51.088;6.572;2023-03-26T19:47:46;9.10;99.90
28075;DHT22;15385;51.088;6.572;2023-03-26T19:53:04;9.10;99.90
28075;DHT22;15385;51.088;6.572;2023-03-26T19:55:36;9.00;99.90
28075;DHT22;15385;51.088;6.572;2023-03-26T19:58:08;9.00;99.90
28075;DHT22;15385;51.088;6.572;2023-03-26T20:00:39;9.00;99.90
28075;DHT22;15385;51.088;6.572;2023-03-26T20:03:10;8.80;99.90
28075;DHT22;15385;51.088;6.572;2023-03-26T20:05:41;8.80;99.90
28075;DHT22;15385;51.088;6.572;2023-03-26T20:08:13;8.70;99.90
28075;DHT22;15385;51.088;6.572;2023-03-26T20:10:44;8.70;99.90
28075;DHT22;15385;51.088;6.572;2023-03-26T20:13:16;8.60;99.90
28075;DHT22;15385;51.088;6.572;2023-03-26T20:15:52;8.60;99.90
28075;DHT22;15385;51.088;6.572;2023-03-26T20:18:26;8.70;99.90
28075;DHT22;15385;51.088;6.572;2023-03-26T20:20:57;8.70;99.90
28075;DHT22;15385;51.088;6.572;2023-03-26T20:23:27;8.80;99.90
28075;DHT22;15385;51.088;6.572;2023-03-26T20:25:58;8.70;99.90
28075;DHT22;15385;51.088;6.572;2023-03-26T20:28:29;8.80;99.90
28075;DHT22;15385;51.088;6.572;2023-03-26T20:30:59;8.80;99.90
28075;DHT22;15385;51.088;6.572;2023-03-26T20:33:30;8.80;99.90
28075;DHT22;15385;51.088;6.572;2023-03-26T20:36:01;8.70;99.90
28075;DHT22;15385;51.088;6.572;2023-03-26T20:38:33;8.70;99.90
28075;DHT22;15385;51.088;6.572;2023-03-26T20:41:03;8.60;99.90
28075;DHT22;15385;51.088;6.572;2023-03-26T20:43:34;8.50;99.90
28075;DHT22;15385;51.088;6.572;2023-03-26T20:46:05;8.60;99.90
28075;DHT22;15385;51.088;6.572;2023-03-26T20:48:36;8.50;99.90
28075;DHT22;15385;51.088;6.572;2023-03-26T20:51:09;8.50;99.90
28075;DHT22;15385;51.088;6.572;2023-03-26T20:53:43;8.50;99.90
28075;DHT22;15385;51.088;6.572;2023-03-26T20:56:17;8.40;99.90
28075;DHT22;15385;51.088;6.572;2023-03-26T20:58:48;8.50;99.90
28075;DHT22;15385;51.088;6.572;2023-03-26T21:01:19;8.50;99.90
28075;DHT22;15385;51.088;6.572;2023-03-26T21:03:50;8.50;99.90
28075;DHT22;15385;51.088;6.572;2023-03-26T21:06:20;8.50;99.90
28075;DHT22;15385;51.088;6.572;2023-03-26T21:08:51;8.40;99.90
28075;DHT22;15385;51.088;6.572;2023-03-26T21:14:24;8.40;99.90
28075;DHT22;15385;51.088;6.572;2023-03-26T21:16:56;8.40;99.90
28075;DHT22;15385;51.088;6.572;2023-03-26T21:19:27;8.30;99.90
28075;DHT22;15385;51.088;6.572;2023-03-26T21:29:53;8.20;99.90
28075;DHT22;15385;51.088;6.572;2023-03-26T21:32:23;8.30;99.90
28075;DHT22;15385;51.088;6.572;2023-03-26T21:34:54;8.20;99.90
28075;DHT22;15385;51.088;6.572;2023-03-26T21:37:25;8.20;99.90
28075;DHT22;15385;51.088;6.572;2023-03-26T21:39:56;8.10;99.90
28075;DHT22;15385;51.088;6.572;2023-03-26T21:42:29;8.00;99.90
28075;DHT22;15385;51.088;6.572;2023-03-26T21:45:00;8.00;99.90
28075;DHT22;15385;51.088;6.572;2023-03-26T21:47:31;8.00;99.90
28075;DHT22;15385;51.088;6.572;2023-03-26T21:50:03;8.00;99.90
28075;DHT22;15385;51.088;6.572;2023-03-26T21:52:34;7.90;99.90
28075;DHT22;15385;51.088;6.572;2023-03-26T21:55:07;8.00;99.90
28075;DHT22;15385;51.088;6.572;2023-03-26T22:01:25;7.80;99.90
28075;DHT22;15385;51.088;6.572;2023-03-26T22:04:23;7.80;99.90
28075;DHT22;15385;51.088;6.572;2023-03-26T22:09:32;7.80;99.90
28075;DHT22;15385;51.088;6.572;2023-03-26T22:12:04;7.80;99.90
28075;DHT22;15385;51.088;6.572;2023-03-26T22:14:34;7.70;99.90
28075;DHT22;15385;51.088;6.572;2023-03-26T22:17:05;7.70;99.90
28075;DHT22;15385;51.088;6.572;2023-03-26T22:19:36;7.70;99.90
28075;DHT22;15385;51.088;6.572;2023-03-26T22:22:07;7.70;99.90
28075;DHT22;15385;51.088;6.572;2023-03-26T22:24:37;7.70;99.90
28075;DHT22;15385;51.088;6.572;2023-03-26T22:27:08;7.60;99.90
28075;DHT22;15385;51.088;6.572;2023-03-26T22:29:42;7.50;99.90
28075;DHT22;15385;51.088;6.572;2023-03-26T22:32:13;7.40;99.90
28075;DHT22;15385;51.088;6.572;2023-03-26T22:34:43;7.50;99.90
28075;DHT22;15385;51.088;6.572;2023-03-26T22:37:14;7.50;99.90
28075;DHT22;15385;51.088;6.572;2023-03-26T22:39:45;7.50;99.90